Cold Spring, Minnesota
Current Conditions -  °F | °C
As of 10:14 PM on Sunday 21 Dec 2014 (Local Time) from KPEX Reporting Station
Drizzle Drizzle  
Wind Chill: 25°   Ceiling: 300
Heat Index: 33°   Visibility: 2.5mi
Dew Point: 33°   Wind: 9mph
Humidity: 100%   Direction: 110°ESE
Pressure: 29.64"   Gusts: NA
Location:  45.46°N, 94.43°W
Report Text: KPEX 220414Z AUTO 11008KT 2 1/2SM -DZ OVC003 01/01 A2964 RMK AO2 T00060007
Loading
Personal Weather Stations






























Interactive Weather Map New forecast layout! Learn more

10-Day Weather Forecast

Advertisements
Track Severe Weather on mobile